Powell, WY (82435)

10:20 AM MST on February 12, 2016 (GMT -0700)
Henry Subdivision | | Change Station
CLOSE
Current Station
Personal Weather Station
Location: Powell, WY
Elevation: 4396 ft
Nearby Weather Stations

Elev 4396 ft 44.78 °N, 108.77 °W | Updated 10 seconds ago

Overcast
Overcast
43.5 °F
Feels Like 44 °F
N
0.4
Wind Variable Wind from ENE
Gusts 2.5 mph

Today
High -- | Low -- °F
--% Chance of Precip.
Yesterday
High -- | Low -- °F
Precip. -- in
Pressure 30.24 in
Visibility 10.0 miles
Clouds Clear
Windchill 44 °F
Dew Point 26 °F
Humidity 49%
Rainfall 0.00 in
Snow Depth Not available.
7:20 AM 5:38 PM
Waxing Crescent, 22% visible
METAR KCOD 121715Z AUTO 00000KT 10SM CLR 07/M04 A3024 RMK AO1
Pressure 30.24 in
Visibility 10.0 miles
Clouds Clear
Windchill 44 °F
Dew Point 26 °F
Humidity 49%
Rainfall 0.00 in
Snow Depth Not available.
7:20 AM 5:38 PM
Waxing Crescent, 22% visible
METAR KCOD 121715Z AUTO 00000KT 10SM CLR 07/M04 A3024 RMK AO1

10-Day Weather Forecast

Almanac

Astronomy

Feb. 12, 2016 Rise Set
Actual Time
Civil Twilight
Nautical Twilight
Astronomical Twilight
Moon
Length of Visible Light
Length of Day
Tomorrow will be .
, % of the Moon is Illuminated

Today's Extremes

State Highs State Lows

Community

WunderPhotos

Upload Photos

1,892,353 photos uploaded!

WunderBlog® & News

Nearby

Air Quality

  Air Quality AQ Index Pollutant
Not available.

Snow Depth

Station Depth Elevation

Earthquake Activity

City Distance Mag. Time & Date
Minimum magnitude displayed is 2.5.

Coastal Water Temperatures

Place Temperature

Stations

Nearby Weather Stations

Station Location Temp. Windchill Dew Point Humidity Wind Precip. Elev Updated Type
                   

Watches & Warnings

There are currently no watches in effect.